Time;durP1;ratioP1;P1;durP2;ratioP2;P2;SDS_P1;SDS_P2;PMS_P1;PMS_P2;Temp;Humidity;BMP_temperature;BMP_pressure;BME280_temperature;BME280_humidity;BME280_pressure;Samples;Min_cycle;Max_cycle;Signal;HPM_P1;HPM_P2
2023/08/14 00:01:32;;;;;;;6.75;2.20;;;18.60;99.90;;;;;;5066073;28;20055;-80
2023/08/14 00:03:57;;;;;;;4.65;1.75;;;18.60;99.90;;;;;;5064648;28;20050;-80
2023/08/14 00:06:23;;;;;;;4.95;2.13;;;18.60;99.90;;;;;;5066266;28;20024;-80
2023/08/14 00:08:48;;;;;;;6.50;2.40;;;18.50;99.90;;;;;;5065387;28;20040;-81
2023/08/14 00:11:14;;;;;;;7.05;2.28;;;18.60;99.90;;;;;;5064053;28;20063;-81
2023/08/14 00:13:50;;;;;;;9.07;2.17;;;18.80;99.90;;;;;;5067255;28;20496;-81
2023/08/14 00:16:16;;;;;;;4.03;1.83;;;18.70;99.90;;;;;;5061633;28;20077;-81
2023/08/14 00:18:41;;;;;;;9.35;2.50;;;18.70;99.90;;;;;;5062915;28;20434;-81
2023/08/14 00:21:07;;;;;;;6.57;1.88;;;18.70;99.90;;;;;;5063206;28;20025;-80
2023/08/14 00:23:32;;;;;;;9.63;2.10;;;18.70;99.90;;;;;;5065561;28;20056;-81
2023/08/14 00:25:58;;;;;;;7.18;2.17;;;18.70;99.90;;;;;;5065673;28;20472;-80
2023/08/14 00:28:24;;;;;;;8.27;2.70;;;18.80;99.90;;;;;;5065711;28;20478;-80
2023/08/14 00:30:49;;;;;;;5.72;2.13;;;18.80;99.90;;;;;;5065110;28;20338;-80
2023/08/14 00:33:15;;;;;;;8.43;2.30;;;18.90;99.90;;;;;;5065684;28;20117;-80
2023/08/14 00:35:41;;;;;;;9.38;1.80;;;18.90;99.90;;;;;;5065979;28;20035;-80
2023/08/14 00:38:06;;;;;;;4.43;2.03;;;18.90;99.90;;;;;;5063736;28;20029;-81
2023/08/14 00:40:32;;;;;;;7.93;1.83;;;18.90;99.90;;;;;;5064269;28;20049;-80
2023/08/14 00:43:01;;;;;;;2.70;1.70;;;18.90;99.90;;;;;;5065767;28;20036;-81
2023/08/14 00:45:27;;;;;;;3.80;1.60;;;18.90;99.90;;;;;;5063848;28;20032;-81
2023/08/14 00:47:54;;;;;;;3.50;1.90;;;18.80;99.90;;;;;;5065297;28;20036;-80
2023/08/14 00:50:22;;;;;;;9.52;1.98;;;18.80;99.90;;;;;;5065528;28;20082;-81
2023/08/14 00:52:51;;;;;;;2.83;1.80;;;18.70;99.90;;;;;;5064385;28;20035;-80
2023/08/14 00:55:26;;;;;;;3.85;1.90;;;18.70;99.90;;;;;;5062433;28;20474;-80
2023/08/14 00:57:56;;;;;;;6.43;1.80;;;18.60;99.90;;;;;;5065461;28;20024;-80
2023/08/14 01:00:22;;;;;;;4.22;1.67;;;18.60;99.90;;;;;;5068170;28;20548;-80
2023/08/14 01:02:49;;;;;;;3.70;1.88;;;18.50;99.90;;;;;;5068020;28;20024;-81
2023/08/14 01:05:14;;;;;;;6.70;2.40;;;18.40;99.90;;;;;;5064614;28;20167;-81
2023/08/14 01:07:40;;;;;;;3.55;1.70;;;18.30;99.90;;;;;;5069843;28;20111;-81
2023/08/14 01:10:11;;;;;;;7.30;1.70;;;18.20;99.90;;;;;;5067063;28;20317;-80
2023/08/14 01:13:16;;;;;;;3.03;2.13;;;18.10;99.90;;;;;;5074265;28;20021;-80
2023/08/14 01:15:52;;;;;;;7.20;1.98;;;18.10;99.90;;;;;;5070772;28;20024;-81
2023/08/14 01:18:22;;;;;;;6.80;2.03;;;18.00;99.90;;;;;;5069520;28;20035;-80
2023/08/14 01:21:17;;;;;;;5.78;2.00;;;17.90;99.90;;;;;;5065000;28;20032;-80
2023/08/14 01:24:12;;;;;;;9.55;1.95;;;17.90;99.90;;;;;;5064151;28;20401;-80
2023/08/14 01:26:42;;;;;;;6.05;1.88;;;17.90;99.90;;;;;;5066127;28;20052;-80
2023/08/14 01:29:07;;;;;;;7.38;2.75;;;18.00;99.90;;;;;;5068183;28;20048;-81
2023/08/14 01:31:33;;;;;;;7.18;1.90;;;18.20;99.90;;;;;;5068186;28;20447;-80
2023/08/14 01:33:59;;;;;;;9.07;2.03;;;18.20;99.90;;;;;;5068017;28;20111;-80
2023/08/14 01:36:47;;;;;;;5.82;2.00;;;18.30;99.90;;;;;;5068013;28;20024;-82
2023/08/14 01:39:19;;;;;;;7.88;2.63;;;18.30;99.90;;;;;;5065558;28;20067;-81
2023/08/14 01:42:03;;;;;;;5.95;2.13;;;18.30;99.90;;;;;;5067822;28;20025;-81
2023/08/14 01:44:31;;;;;;;6.70;1.92;;;18.30;99.90;;;;;;5062382;28;20028;-81
2023/08/14 01:46:58;;;;;;;2.58;1.77;;;18.30;99.90;;;;;;5068216;28;20036;-81
2023/08/14 01:49:27;;;;;;;4.60;1.58;;;18.30;99.90;;;;;;5046877;28;20481;-80
2023/08/14 01:51:58;;;;;;;5.80;2.10;;;18.20;99.90;;;;;;5065877;28;20029;-80
2023/08/14 01:54:27;;;;;;;3.78;1.55;;;18.20;99.90;;;;;;5067477;28;20028;-80
2023/08/14 01:56:56;;;;;;;6.50;1.80;;;18.20;99.90;;;;;;5067984;28;20809;-81
2023/08/14 01:59:30;;;;;;;7.22;1.85;;;18.10;99.90;;;;;;5070587;28;20521;-80
2023/08/14 02:01:55;;;;;;;7.07;2.50;;;18.10;99.90;;;;;;5062306;28;20024;-81
2023/08/14 02:04:24;;;;;;;7.78;1.88;;;18.00;99.90;;;;;;5066590;28;21217;-81
2023/08/14 02:06:50;;;;;;;6.38;1.67;;;18.00;99.90;;;;;;5067426;28;20036;-81
2023/08/14 02:09:15;;;;;;;9.55;2.50;;;18.00;99.90;;;;;;5068507;28;20093;-80
2023/08/14 02:11:43;;;;;;;8.38;2.13;;;17.90;99.90;;;;;;5066876;28;20099;-80
2023/08/14 02:14:10;;;;;;;12.00;2.20;;;17.90;99.90;;;;;;5050063;28;20030;-81
2023/08/14 02:16:38;;;;;;;6.00;2.20;;;17.90;99.90;;;;;;5065330;28;20021;-80
2023/08/14 02:19:04;;;;;;;2.67;1.50;;;17.90;99.90;;;;;;5061205;28;20090;-80
2023/08/14 02:21:29;;;;;;;5.68;2.20;;;17.90;99.90;;;;;;5068666;28;20036;-79
2023/08/14 02:23:55;;;;;;;5.25;1.98;;;17.90;99.90;;;;;;5066836;28;20024;-80
2023/08/14 02:26:20;;;;;;;4.30;2.22;;;17.90;99.90;;;;;;5063398;28;20040;-80
2023/08/14 02:28:46;;;;;;;2.38;1.60;;;17.90;99.90;;;;;;5059340;28;20119;-80
2023/08/14 02:31:12;;;;;;;1.98;1.40;;;17.90;99.90;;;;;;5065978;28;20032;-80
2023/08/14 02:33:37;;;;;;;3.28;1.52;;;17.80;99.90;;;;;;5071227;28;20025;-80
2023/08/14 02:36:03;;;;;;;2.60;1.50;;;17.80;99.90;;;;;;5057358;28;20784;-80
2023/08/14 02:38:30;;;;;;;3.60;2.03;;;17.80;99.90;;;;;;5048369;28;20031;-80
2023/08/14 02:40:56;;;;;;;5.72;2.30;;;17.80;99.90;;;;;;5065722;28;20048;-80
2023/08/14 02:43:21;;;;;;;8.60;2.00;;;17.80;99.90;;;;;;5061753;28;20059;-80
2023/08/14 02:45:47;;;;;;;4.93;2.08;;;17.70;99.90;;;;;;5067052;28;20024;-80
2023/08/14 02:48:12;;;;;;;5.55;1.60;;;17.60;99.90;;;;;;5063954;28;20320;-80
2023/08/14 02:50:38;;;;;;;4.05;1.83;;;17.50;99.90;;;;;;5046262;28;20474;-80
2023/08/14 02:53:04;;;;;;;3.28;1.75;;;17.50;99.90;;;;;;5065815;28;20034;-80
2023/08/14 02:55:31;;;;;;;2.15;1.58;;;17.40;99.90;;;;;;5064508;28;20060;-80
2023/08/14 02:57:57;;;;;;;2.88;1.60;;;17.40;99.90;;;;;;5066688;28;20559;-79
2023/08/14 03:00:23;;;;;;;3.53;1.70;;;17.30;99.90;;;;;;5063851;28;20033;-80
2023/08/14 03:02:48;;;;;;;5.22;1.90;;;17.30;99.90;;;;;;5062943;28;20024;-80
2023/08/14 03:05:14;;;;;;;9.32;2.05;;;17.20;99.90;;;;;;5064496;28;20021;-80
2023/08/14 03:07:40;;;;;;;7.85;1.85;;;17.20;99.90;;;;;;5065738;28;20078;-81
2023/08/14 03:10:06;;;;;;;4.95;2.13;;;17.10;99.90;;;;;;5063426;28;20546;-80
2023/08/14 03:12:31;;;;;;;8.95;2.75;;;17.20;99.90;;;;;;5064934;28;20033;-80
2023/08/14 03:14:57;;;;;;;8.30;2.67;;;17.40;99.90;;;;;;5067705;28;20033;-79
2023/08/14 03:17:23;;;;;;;7.80;2.83;;;17.60;99.90;;;;;;5067110;28;20060;-79
2023/08/14 03:19:49;;;;;;;11.55;2.25;;;17.80;99.90;;;;;;5064829;28;20382;-79
2023/08/14 03:22:15;;;;;;;8.10;2.20;;;17.90;99.90;;;;;;5057894;28;20102;-79
2023/08/14 03:24:40;;;;;;;5.85;1.98;;;18.00;99.90;;;;;;5066435;28;20709;-79
2023/08/14 03:27:06;;;;;;;5.82;2.17;;;18.10;99.90;;;;;;5060119;28;20036;-80
2023/08/14 03:29:32;;;;;;;5.45;2.28;;;18.20;99.90;;;;;;5068393;28;20136;-80
2023/08/14 03:31:57;;;;;;;11.23;2.50;;;18.30;99.90;;;;;;5064309;28;20036;-81
2023/08/14 03:34:24;;;;;;;7.55;2.72;;;18.40;99.90;;;;;;5066494;28;20111;-79
2023/08/14 03:36:49;;;;;;;5.35;2.38;;;18.50;99.90;;;;;;5061982;28;20029;-82
2023/08/14 03:39:15;;;;;;;9.00;2.13;;;18.50;99.90;;;;;;5063422;28;20039;-80
2023/08/14 03:41:41;;;;;;;4.38;2.20;;;18.60;99.90;;;;;;5058024;28;20037;-80
2023/08/14 03:44:06;;;;;;;7.55;2.17;;;18.60;99.90;;;;;;5064102;28;20508;-80
2023/08/14 03:46:32;;;;;;;8.38;2.83;;;18.70;99.90;;;;;;5063219;28;20028;-82
2023/08/14 03:48:58;;;;;;;3.80;1.95;;;18.70;99.90;;;;;;5068535;28;20042;-79
2023/08/14 03:51:23;;;;;;;5.13;2.30;;;18.80;99.90;;;;;;5055072;28;20027;-80
2023/08/14 03:53:49;;;;;;;7.18;2.20;;;18.80;99.90;;;;;;5062117;28;20028;-80
2023/08/14 03:56:15;;;;;;;6.13;2.42;;;18.80;99.90;;;;;;5063895;28;20032;-79
2023/08/14 03:58:41;;;;;;;6.07;1.95;;;18.90;99.90;;;;;;5061170;28;20388;-80
2023/08/14 04:01:06;;;;;;;5.63;2.10;;;18.90;99.90;;;;;;5059464;28;20119;-81
2023/08/14 04:03:32;;;;;;;3.85;2.13;;;18.90;99.90;;;;;;5064243;28;20119;-81
2023/08/14 04:06:00;;;;;;;4.05;2.15;;;18.90;99.90;;;;;;5061426;28;20112;-80
2023/08/14 04:08:26;;;;;;;4.07;2.15;;;18.90;99.90;;;;;;5059291;28;20049;-80
2023/08/14 04:10:54;;;;;;;10.23;2.40;;;18.80;99.90;;;;;;5064262;28;20063;-80
2023/08/14 04:13:20;;;;;;;7.28;2.47;;;18.80;99.90;;;;;;5062133;28;20036;-81
2023/08/14 04:15:45;;;;;;;3.10;1.80;;;18.80;99.90;;;;;;5058562;28;20035;-79
2023/08/14 04:18:11;;;;;;;7.97;2.00;;;18.80;99.90;;;;;;5059246;28;20082;-80
2023/08/14 04:20:37;;;;;;;7.20;2.30;;;18.90;99.90;;;;;;5071964;28;20097;-80
2023/08/14 04:23:02;;;;;;;8.18;2.30;;;18.90;99.90;;;;;;5044949;28;20086;-80
2023/08/14 04:25:28;;;;;;;17.85;2.53;;;18.90;99.90;;;;;;5065677;28;20024;-81
2023/08/14 04:27:54;;;;;;;5.90;2.42;;;18.90;99.90;;;;;;5064918;28;20433;-80
2023/08/14 04:30:20;;;;;;;4.65;2.45;;;18.90;99.90;;;;;;5059952;28;20036;-81
2023/08/14 04:32:46;;;;;;;9.57;2.35;;;18.90;99.90;;;;;;5069378;28;20482;-80
2023/08/14 04:35:11;;;;;;;6.60;2.55;;;18.90;99.90;;;;;;5068196;28;20490;-80
2023/08/14 04:37:37;;;;;;;4.07;2.38;;;18.90;99.90;;;;;;5069894;28;20111;-80
2023/08/14 04:40:04;;;;;;;4.95;2.25;;;18.90;99.90;;;;;;5068961;28;20055;-81
2023/08/14 04:42:31;;;;;;;7.90;2.17;;;18.90;99.90;;;;;;5069749;28;20078;-80
2023/08/14 04:44:57;;;;;;;4.45;2.30;;;18.90;99.90;;;;;;5069675;28;20036;-80
2023/08/14 04:47:22;;;;;;;6.82;2.70;;;18.90;99.90;;;;;;5063131;28;20047;-80
2023/08/14 04:49:48;;;;;;;9.80;2.60;;;18.90;99.90;;;;;;5068905;28;20060;-81
2023/08/14 04:52:14;;;;;;;8.68;2.58;;;18.90;99.90;;;;;;5070362;28;20108;-81
2023/08/14 04:54:39;;;;;;;5.88;2.38;;;18.90;99.90;;;;;;5068438;28;20074;-80
2023/08/14 04:57:05;;;;;;;6.40;2.33;;;18.90;99.90;;;;;;5068897;28;20035;-80
2023/08/14 04:59:31;;;;;;;5.13;2.50;;;18.80;99.90;;;;;;5062430;28;20037;-80
2023/08/14 05:01:56;;;;;;;5.65;2.63;;;18.80;99.90;;;;;;5070527;28;20035;-80
2023/08/14 05:04:22;;;;;;;6.68;2.75;;;18.70;99.90;;;;;;5069358;28;20028;-81
2023/08/14 05:06:48;;;;;;;9.63;2.65;;;18.70;99.90;;;;;;5062099;28;20043;-80
2023/08/14 05:09:14;;;;;;;9.88;2.53;;;18.70;99.90;;;;;;5069276;28;20052;-80
2023/08/14 05:11:39;;;;;;;4.47;2.10;;;18.70;99.90;;;;;;5069514;28;20043;-80
2023/08/14 05:14:27;;;;;;;8.25;2.35;;;18.60;99.90;;;;;;5072824;28;20032;-80
2023/08/14 05:16:53;;;;;;;10.13;2.80;;;18.60;99.90;;;;;;5046938;28;20378;-81
2023/08/14 05:19:19;;;;;;;7.53;2.35;;;18.60;99.90;;;;;;5074473;28;20023;-81
2023/08/14 05:21:45;;;;;;;9.02;3.10;;;18.60;99.90;;;;;;5045323;28;20067;-80
2023/08/14 05:24:13;;;;;;;4.45;2.80;;;18.60;99.90;;;;;;5061608;28;20033;-80
2023/08/14 05:26:39;;;;;;;32.67;6.00;;;18.70;99.90;;;;;;5065165;28;20029;-80
2023/08/14 05:29:04;;;;;;;40.03;7.07;;;18.70;99.90;;;;;;5065729;28;20146;-80
2023/08/14 05:31:30;;;;;;;13.02;3.67;;;18.80;99.90;;;;;;5067603;28;20020;-80
2023/08/14 05:33:56;;;;;;;18.55;3.50;;;18.90;99.90;;;;;;5063740;28;20112;-81
2023/08/14 05:36:21;;;;;;;6.32;3.22;;;19.00;99.90;;;;;;5059234;28;20459;-81
2023/08/14 05:38:47;;;;;;;13.70;3.05;;;19.10;99.90;;;;;;5064963;28;20051;-80
2023/08/14 05:41:13;;;;;;;6.03;2.75;;;19.20;99.90;;;;;;5062605;28;20048;-80
2023/08/14 05:43:38;;;;;;;8.13;2.92;;;19.30;99.90;;;;;;5058994;28;20029;-81
2023/08/14 05:46:05;;;;;;;7.78;2.47;;;19.40;99.90;;;;;;5061650;28;20056;-81
2023/08/14 05:48:31;;;;;;;8.68;2.70;;;19.40;99.90;;;;;;5061319;28;20029;-81
2023/08/14 05:50:56;;;;;;;4.70;2.85;;;19.60;99.90;;;;;;5066280;28;20037;-80
2023/08/14 05:53:22;;;;;;;3.92;1.90;;;19.70;99.90;;;;;;5069029;28;20031;-80
2023/08/14 05:55:48;;;;;;;6.78;2.50;;;19.70;99.90;;;;;;5067861;28;20056;-80
2023/08/14 05:58:14;;;;;;;6.82;2.65;;;19.80;99.90;;;;;;5063651;28;20509;-79
2023/08/14 06:00:39;;;;;;;5.35;2.30;;;19.90;99.90;;;;;;5066047;28;20027;-81
2023/08/14 06:03:06;;;;;;;7.53;2.65;;;20.00;99.90;;;;;;5066936;28;20029;-80
2023/08/14 06:05:32;;;;;;;6.45;2.33;;;20.10;99.90;;;;;;5067626;28;20043;-82
2023/08/14 06:07:57;;;;;;;4.50;2.38;;;20.10;99.90;;;;;;5055489;28;20052;-82
2023/08/14 06:10:23;;;;;;;4.25;2.30;;;20.30;99.90;;;;;;5063320;28;20108;-81
2023/08/14 06:12:50;;;;;;;5.78;2.38;;;20.30;99.90;;;;;;5060019;28;20488;-81
2023/08/14 06:15:19;;;;;;;4.70;2.88;;;20.40;99.90;;;;;;5038753;28;20055;-81
2023/08/14 06:17:46;;;;;;;7.50;2.67;;;20.50;99.90;;;;;;5067960;28;20470;-82
2023/08/14 06:20:12;;;;;;;4.03;2.05;;;20.50;99.90;;;;;;5063590;28;20115;-81
2023/08/14 06:22:46;;;;;;;12.18;2.60;;;20.50;99.90;;;;;;5068019;28;20103;-81
2023/08/14 06:25:13;;;;;;;5.30;2.25;;;20.60;99.90;;;;;;5065654;28;20112;-81
2023/08/14 06:27:39;;;;;;;9.15;2.55;;;20.60;99.90;;;;;;5056743;28;20036;-80
2023/08/14 06:30:08;;;;;;;13.60;2.47;;;20.70;99.90;;;;;;5066545;28;20394;-81
2023/08/14 06:32:34;;;;;;;4.47;2.35;;;20.80;99.90;;;;;;5059538;28;20032;-80
2023/08/14 06:34:59;;;;;;;8.70;2.30;;;20.80;99.90;;;;;;5067574;28;20078;-81
2023/08/14 06:37:25;;;;;;;4.15;2.33;;;20.90;99.90;;;;;;5065859;28;20036;-80
2023/08/14 06:39:51;;;;;;;4.40;2.45;;;20.90;99.90;;;;;;5059049;28;20041;-81
2023/08/14 06:42:16;;;;;;;7.53;2.53;;;21.00;99.90;;;;;;5065486;28;20349;-81
2023/08/14 06:44:42;;;;;;;9.40;2.22;;;21.00;99.90;;;;;;5064554;28;20056;-81
2023/08/14 06:47:08;;;;;;;7.18;2.50;;;21.10;99.90;;;;;;5063140;28;20028;-81
2023/08/14 06:49:33;;;;;;;7.72;3.00;;;21.20;99.90;;;;;;5063041;28;20037;-81
2023/08/14 06:51:59;;;;;;;5.85;3.35;;;21.30;99.90;;;;;;5064445;28;20017;-81
2023/08/14 06:54:24;;;;;;;9.15;2.85;;;21.30;99.90;;;;;;5053899;28;20115;-81
2023/08/14 06:56:50;;;;;;;3.80;2.22;;;21.40;99.90;;;;;;5061107;28;20017;-80
2023/08/14 06:59:16;;;;;;;4.18;2.88;;;21.40;99.90;;;;;;5064874;28;20383;-82
2023/08/14 07:01:41;;;;;;;10.65;2.38;;;21.50;99.90;;;;;;5064459;28;20120;-82
2023/08/14 07:04:07;;;;;;;7.13;2.47;;;21.50;99.90;;;;;;5061241;28;20116;-82
2023/08/14 07:06:33;;;;;;;6.13;2.97;;;21.60;99.90;;;;;;5060788;28;20025;-83
2023/08/14 07:08:59;;;;;;;6.47;2.80;;;21.60;99.90;;;;;;5062552;28;20308;-82
2023/08/14 07:11:25;;;;;;;5.32;2.38;;;21.70;99.90;;;;;;5065243;28;20052;-82
2023/08/14 07:13:51;;;;;;;14.55;2.70;;;21.70;99.90;;;;;;5063113;28;20056;-82
2023/08/14 07:16:16;;;;;;;8.60;2.40;;;21.80;99.90;;;;;;5055699;28;20039;-82
2023/08/14 07:18:42;;;;;;;5.60;2.80;;;21.90;99.90;;;;;;5059066;28;20028;-82
2023/08/14 07:21:07;;;;;;;5.45;2.10;;;21.90;99.90;;;;;;5064486;28;20440;-82
2023/08/14 07:23:33;;;;;;;7.57;2.70;;;22.10;99.90;;;;;;5044235;28;20028;-82
2023/08/14 07:26:03;;;;;;;7.07;2.55;;;22.10;99.90;;;;;;5058523;28;20029;-82
2023/08/14 07:28:29;;;;;;;9.35;3.20;;;22.20;99.90;;;;;;5045712;28;20133;-82
2023/08/14 07:30:55;;;;;;;8.85;3.42;;;22.20;99.90;;;;;;5067152;28;20205;-82
2023/08/14 07:33:21;;;;;;;4.28;2.92;;;22.30;99.90;;;;;;5061804;28;20024;-81
2023/08/14 07:35:46;;;;;;;5.82;2.70;;;22.40;99.90;;;;;;5055315;28;20095;-84
2023/08/14 07:38:12;;;;;;;6.90;3.10;;;22.40;99.90;;;;;;5064152;28;20032;-82
2023/08/14 07:40:38;;;;;;;11.18;3.60;;;22.50;99.90;;;;;;5060024;28;20041;-81
2023/08/14 07:43:04;;;;;;;16.02;4.45;;;22.50;99.90;;;;;;5064263;28;20115;-83
2023/08/14 07:45:29;;;;;;;9.20;3.35;;;22.60;99.90;;;;;;5039928;28;20124;-82
2023/08/14 07:47:55;;;;;;;16.80;4.00;;;22.60;99.90;;;;;;5067172;28;20032;-82
2023/08/14 07:50:21;;;;;;;10.68;3.72;;;22.70;99.90;;;;;;5064185;28;20784;-83
2023/08/14 07:52:46;;;;;;;9.27;3.85;;;22.80;99.90;;;;;;5055844;28;20032;-83
2023/08/14 07:55:12;;;;;;;9.60;3.30;;;22.80;99.90;;;;;;5067107;28;20032;-82
2023/08/14 07:57:37;;;;;;;14.68;3.67;;;22.90;99.90;;;;;;5062611;28;20056;-82
2023/08/14 08:00:07;;;;;;;11.45;3.67;;;22.90;99.90;;;;;;5060825;28;20482;-83
2023/08/14 08:02:33;;;;;;;12.10;3.30;;;23.00;99.90;;;;;;5061404;28;20036;-82
2023/08/14 08:04:59;;;;;;;11.80;4.50;;;23.00;99.90;;;;;;5050779;28;20776;-81
2023/08/14 08:07:25;;;;;;;8.93;3.42;;;23.10;99.90;;;;;;5053435;28;20020;-83
2023/08/14 08:09:51;;;;;;;11.55;3.65;;;23.10;99.90;;;;;;5065910;28;20678;-82
2023/08/14 08:12:16;;;;;;;8.52;3.90;;;23.10;99.90;;;;;;5062555;28;20020;-82
2023/08/14 08:14:42;;;;;;;11.95;3.95;;;23.10;99.90;;;;;;5066509;28;20028;-82
2023/08/14 08:17:08;;;;;;;7.82;3.60;;;23.20;99.90;;;;;;5067297;28;20036;-83
2023/08/14 08:19:34;;;;;;;15.43;4.60;;;23.30;99.90;;;;;;5067223;28;20080;-83
2023/08/14 08:22:00;;;;;;;6.93;3.40;;;23.30;99.90;;;;;;5049248;28;20144;-80
2023/08/14 08:24:25;;;;;;;16.38;3.00;;;23.40;99.90;;;;;;5058564;28;20025;-82
2023/08/14 08:26:51;;;;;;;7.43;2.88;;;23.40;99.90;;;;;;5062462;28;20428;-82
2023/08/14 08:29:16;;;;;;;13.52;3.38;;;23.50;99.90;;;;;;5062503;28;20041;-82
2023/08/14 08:31:42;;;;;;;8.52;3.20;;;23.60;99.90;;;;;;5066506;28;20037;-82
2023/08/14 08:34:08;;;;;;;6.28;2.83;;;23.70;99.90;;;;;;5073161;28;20474;-82
2023/08/14 08:36:34;;;;;;;13.35;2.95;;;23.70;99.90;;;;;;5063099;28;20021;-82
2023/08/14 08:38:59;;;;;;;7.40;3.05;;;23.80;99.90;;;;;;5058941;28;20036;-82
2023/08/14 08:41:38;;;;;;;7.53;2.83;;;23.90;99.90;;;;;;5054457;28;20111;-83
2023/08/14 08:44:10;;;;;;;9.32;2.92;;;24.00;99.90;;;;;;5061562;28;20510;-84
2023/08/14 08:46:37;;;;;;;3.80;2.67;;;24.00;99.90;;;;;;5059260;28;20025;-84
2023/08/14 08:49:03;;;;;;;6.80;2.75;;;24.00;99.90;;;;;;5063678;28;20067;-83
2023/08/14 08:51:34;;;;;;;3.08;2.35;;;24.00;99.90;;;;;;5051479;28;20569;-82
2023/08/14 08:54:00;;;;;;;8.50;2.58;;;24.10;99.90;;;;;;5066489;28;20444;-83
2023/08/14 08:56:26;;;;;;;8.32;3.17;;;24.10;99.90;;;;;;5063266;28;20470;-83
2023/08/14 08:58:52;;;;;;;2.30;2.10;;;24.20;99.90;;;;;;5060311;28;20029;-83
2023/08/14 09:01:19;;;;;;;5.70;2.55;;;24.20;99.90;;;;;;5060533;28;20107;-83
2023/08/14 09:03:45;;;;;;;4.35;2.45;;;24.30;99.90;;;;;;5061697;28;20024;-83
2023/08/14 09:06:11;;;;;;;4.20;2.42;;;24.30;99.90;;;;;;5057259;28;20477;-83
2023/08/14 09:08:36;;;;;;;4.68;2.45;;;24.40;99.90;;;;;;5058353;28;20039;-83
2023/08/14 09:11:02;;;;;;;3.88;2.28;;;24.40;99.90;;;;;;5058976;28;20024;-83
2023/08/14 09:13:29;;;;;;;7.28;2.75;;;24.50;99.90;;;;;;5044765;28;20032;-82
2023/08/14 09:15:55;;;;;;;3.13;2.63;;;24.50;99.90;;;;;;5061705;28;20031;-83
2023/08/14 09:18:20;;;;;;;5.85;2.28;;;24.50;99.90;;;;;;5064062;28;20424;-82
2023/08/14 09:20:46;;;;;;;7.10;2.65;;;24.50;99.90;;;;;;5066892;28;20021;-83
2023/08/14 09:23:12;;;;;;;4.50;2.72;;;24.60;99.90;;;;;;5063707;28;20033;-82
2023/08/14 09:25:42;;;;;;;5.55;2.60;;;24.60;99.90;;;;;;5066072;28;20105;-82
2023/08/14 09:28:09;;;;;;;5.72;2.90;;;24.70;99.90;;;;;;5067469;28;20032;-83
2023/08/14 09:30:38;;;;;;;5.20;2.60;;;24.90;99.90;;;;;;5062735;28;20077;-82
2023/08/14 09:33:08;;;;;;;8.30;3.00;;;24.90;99.90;;;;;;5059868;28;20115;-86
2023/08/14 09:35:37;;;;;;;9.43;2.80;;;24.90;99.90;;;;;;5062569;28;20071;-83
2023/08/14 09:38:04;;;;;;;5.00;2.65;;;25.00;99.90;;;;;;5063800;28;20119;-82
2023/08/14 09:40:30;;;;;;;8.10;2.58;;;25.10;99.90;;;;;;5064422;28;20060;-82
2023/08/14 09:42:56;;;;;;;10.68;3.22;;;25.10;99.90;;;;;;5052241;28;20054;-85
2023/08/14 09:45:24;;;;;;;8.50;3.05;;;25.10;99.90;;;;;;5066910;28;20047;-81
2023/08/14 09:47:50;;;;;;;7.00;2.50;;;25.20;99.90;;;;;;5065273;28;20025;-84
2023/08/14 09:50:17;;;;;;;4.57;2.70;;;25.30;99.90;;;;;;5050228;28;20501;-84
2023/08/14 09:52:43;;;;;;;4.75;3.50;;;25.30;99.90;;;;;;5068885;28;20024;-82
2023/08/14 09:55:10;;;;;;;4.03;3.08;;;25.40;99.90;;;;;;5064516;28;20029;-83
2023/08/14 09:57:36;;;;;;;3.85;2.92;;;25.50;99.90;;;;;;5065339;28;20024;-83
2023/08/14 10:00:03;;;;;;;47.63;11.52;;;25.60;99.90;;;;;;5051274;28;20062;-82
2023/08/14 10:02:32;;;;;;;5.68;3.05;;;25.80;99.90;;;;;;5062646;28;20452;-82
2023/08/14 10:05:01;;;;;;;7.22;2.75;;;25.90;99.90;;;;;;5063546;28;20047;-82
2023/08/14 10:07:27;;;;;;;4.90;2.42;;;26.00;99.90;;;;;;5061481;28;20097;-83
2023/08/14 10:09:58;;;;;;;5.45;2.70;;;26.10;99.90;;;;;;5057327;28;20042;-83
2023/08/14 10:12:29;;;;;;;4.82;2.55;;;26.00;99.90;;;;;;5064708;28;20035;-83
2023/08/14 10:15:13;;;;;;;5.28;2.97;;;26.00;99.90;;;;;;5063181;28;20064;-83
2023/08/14 10:18:10;;;;;;;6.20;2.60;;;26.10;99.90;;;;;;5061788;28;20542;-83
2023/08/14 10:20:37;;;;;;;10.25;2.55;;;26.10;99.90;;;;;;5062876;28;20512;-83
2023/08/14 10:23:03;;;;;;;6.15;3.17;;;26.10;99.90;;;;;;5065803;28;20059;-83
2023/08/14 10:25:29;;;;;;;9.93;3.33;;;26.10;99.90;;;;;;5066250;28;20043;-82
2023/08/14 10:27:55;;;;;;;10.68;2.75;;;26.20;99.90;;;;;;5041598;28;20025;-83
2023/08/14 10:30:22;;;;;;;3.22;2.30;;;26.30;99.90;;;;;;5064484;28;20032;-82
2023/08/14 10:32:49;;;;;;;9.18;3.45;;;26.20;99.90;;;;;;5059993;28;20371;-83
2023/08/14 10:35:15;;;;;;;5.30;2.30;;;26.40;99.90;;;;;;5068770;28;20032;-82
2023/08/14 10:37:47;;;;;;;5.63;3.03;;;26.40;99.90;;;;;;5061593;28;20035;-83
2023/08/14 10:40:24;;;;;;;6.30;3.85;;;26.50;99.90;;;;;;5056612;28;20143;-84
2023/08/14 10:42:56;;;;;;;5.80;2.92;;;26.60;99.90;;;;;;5059959;28;20024;-84
2023/08/14 10:45:27;;;;;;;6.95;2.72;;;26.70;99.90;;;;;;5055429;28;20033;-83
2023/08/14 10:47:58;;;;;;;12.35;4.43;;;26.70;99.90;;;;;;5064663;28;20505;-84
2023/08/14 10:50:27;;;;;;;11.10;3.55;;;26.90;99.90;;;;;;5065535;28;20109;-82
2023/08/14 10:52:55;;;;;;;5.00;3.03;;;27.00;99.90;;;;;;5064168;28;20468;-83
2023/08/14 10:55:40;;;;;;;4.72;2.63;;;27.00;99.90;;;;;;5052639;28;20020;-83
2023/08/14 10:58:28;;;;;;;5.38;3.00;;;27.00;99.90;;;;;;5063940;28;20025;-83
2023/08/14 11:00:54;;;;;;;7.32;3.22;;;26.80;99.90;;;;;;5064414;28;20039;-84
2023/08/14 11:03:20;;;;;;;6.45;3.00;;;26.80;99.90;;;;;;5065445;28;20405;-82
2023/08/14 11:05:46;;;;;;;6.53;3.13;;;26.80;99.90;;;;;;5057335;28;20033;-83
2023/08/14 11:08:14;;;;;;;7.47;2.97;;;26.80;99.90;;;;;;5065230;28;20115;-82
2023/08/14 11:10:41;;;;;;;4.30;2.90;;;26.80;99.90;;;;;;5065310;28;20025;-82
2023/08/14 11:13:10;;;;;;;8.63;2.38;;;26.80;99.90;;;;;;5061320;28;20035;-82
2023/08/14 11:15:37;;;;;;;4.70;3.00;;;26.70;99.90;;;;;;5056869;28;20017;-81
2023/08/14 11:18:06;;;;;;;4.18;3.03;;;26.70;99.90;;;;;;5060283;28;20079;-81
2023/08/14 11:20:32;;;;;;;11.30;3.00;;;26.70;99.90;;;;;;5052578;28;20427;-82
2023/08/14 11:23:01;;;;;;;7.18;3.72;;;26.80;99.90;;;;;;5058535;28;20374;-83
2023/08/14 11:25:27;;;;;;;5.88;3.58;;;26.80;99.90;;;;;;5055359;28;20039;-82
2023/08/14 11:27:55;;;;;;;8.45;3.33;;;26.90;99.90;;;;;;5062528;28;20036;-82
2023/08/14 11:30:23;;;;;;;5.85;3.47;;;26.90;99.90;;;;;;5057296;28;20545;-82
2023/08/14 11:32:50;;;;;;;12.65;4.00;;;26.90;99.90;;;;;;5059826;28;20288;-81
2023/08/14 11:35:17;;;;;;;6.57;3.53;;;26.80;99.90;;;;;;5064315;28;20369;-82
2023/08/14 11:37:44;;;;;;;4.15;3.10;;;26.90;99.90;;;;;;5061286;28;20052;-81
2023/08/14 11:40:12;;;;;;;9.68;3.55;;;26.80;99.90;;;;;;5063386;28;20102;-81
2023/08/14 11:42:40;;;;;;;4.47;2.92;;;26.80;99.90;;;;;;5065503;28;20480;-79
2023/08/14 11:45:06;;;;;;;6.72;3.20;;;26.80;99.90;;;;;;5065480;28;20029;-81
2023/08/14 11:47:52;;;;;;;9.25;3.10;;;26.80;99.90;;;;;;5061814;28;20386;-82
2023/08/14 11:50:18;;;;;;;6.43;3.65;;;26.80;99.90;;;;;;5054713;28;20120;-82
2023/08/14 11:52:45;;;;;;;6.32;2.83;;;26.80;99.90;;;;;;5063265;28;20108;-81
2023/08/14 11:55:11;;;;;;;5.03;3.00;;;26.70;99.90;;;;;;5062580;28;20029;-82
2023/08/14 11:57:38;;;;;;;8.32;3.47;;;26.70;99.90;;;;;;5042145;28;20028;-82
2023/08/14 12:00:13;;;;;;;8.80;3.35;;;26.70;99.90;;;;;;5065858;28;20082;-82
2023/08/14 12:02:39;;;;;;;12.10;3.30;;;26.60;99.90;;;;;;5053027;28;20028;-81
2023/08/14 12:05:06;;;;;;;6.78;3.00;;;26.50;99.90;;;;;;5057976;28;20375;-82
2023/08/14 12:07:32;;;;;;;9.02;2.90;;;26.60;99.90;;;;;;5057764;28;20051;-83
2023/08/14 12:09:58;;;;;;;6.70;3.67;;;26.70;99.90;;;;;;5054822;28;20045;-82
2023/08/14 12:12:28;;;;;;;7.28;3.50;;;26.70;99.90;;;;;;5055589;28;20052;-82
2023/08/14 12:14:54;;;;;;;4.68;3.33;;;26.80;99.90;;;;;;5055909;28;20041;-82
2023/08/14 12:17:20;;;;;;;6.03;3.58;;;26.70;99.90;;;;;;5059643;28;20033;-83
2023/08/14 12:19:54;;;;;;;9.43;3.42;;;26.80;99.90;;;;;;5057804;28;20020;-83
2023/08/14 12:22:24;;;;;;;8.57;3.58;;;26.80;99.90;;;;;;5060230;28;20024;-82
2023/08/14 12:24:51;;;;;;;4.70;3.35;;;26.90;99.90;;;;;;5049534;28;20028;-82
2023/08/14 12:27:24;;;;;;;6.80;3.53;;;26.90;99.90;;;;;;5060609;28;20086;-83
2023/08/14 12:29:51;;;;;;;7.03;3.17;;;27.00;99.90;;;;;;5057029;28;20094;-82
2023/08/14 12:32:17;;;;;;;8.57;3.75;;;27.00;99.90;;;;;;5057665;28;20104;-82
2023/08/14 12:34:42;;;;;;;5.22;3.53;;;27.10;99.90;;;;;;5057864;28;20111;-82
2023/08/14 12:37:13;;;;;;;5.80;3.67;;;27.20;99.90;;;;;;5060541;28;20033;-82
2023/08/14 12:39:42;;;;;;;5.68;3.53;;;27.30;99.90;;;;;;5060477;28;20053;-82
2023/08/14 12:42:08;;;;;;;5.85;3.13;;;27.30;99.90;;;;;;5059467;28;20024;-82
2023/08/14 12:44:34;;;;;;;5.65;3.25;;;27.30;99.90;;;;;;5059179;28;20031;-83
2023/08/14 12:47:03;;;;;;;4.30;3.83;;;27.40;99.90;;;;;;5036257;28;20060;-83